createdAt,value
2018-07-21T00:00:18.586Z,0.87
2018-07-21T00:02:46.237Z,0.90
2018-07-21T00:05:13.933Z,0.77
2018-07-21T00:07:41.502Z,0.87
2018-07-21T00:10:09.128Z,0.78
2018-07-21T00:12:36.718Z,1.10
2018-07-21T00:15:04.526Z,1.03
2018-07-21T00:17:32.268Z,1.60
2018-07-21T00:20:00.014Z,1.23
2018-07-21T00:22:27.779Z,1.00
2018-07-21T00:24:55.449Z,0.97
2018-07-21T00:27:23.173Z,0.73
2018-07-21T00:29:50.810Z,0.97
2018-07-21T00:32:18.466Z,1.23
2018-07-21T00:34:46.104Z,1.00
2018-07-21T00:37:13.908Z,7.90
2018-07-21T00:42:08.635Z,13.00
2018-07-21T05:11:54.908Z,3.20
2018-07-21T05:14:22.699Z,0.67
2018-07-21T05:16:50.396Z,0.90
2018-07-21T05:19:18.122Z,0.83
2018-07-21T11:43:34.312Z,8.20
2018-07-21T11:46:09.108Z,4.60
2018-07-21T11:48:36.953Z,7.60
2018-07-21T11:51:04.758Z,5.28
2018-07-21T11:53:32.832Z,5.08
2018-07-21T11:56:00.740Z,2.63
2018-07-21T11:58:28.955Z,8.15
2018-07-21T12:00:56.840Z,3.15
2018-07-21T12:03:24.450Z,1.70
2018-07-21T12:05:52.017Z,3.33
2018-07-21T12:08:25.347Z,3.92
2018-07-21T12:10:53.028Z,5.60
2018-07-21T12:13:20.804Z,15.28
2018-07-21T12:15:48.446Z,15.53
2018-07-21T12:18:16.942Z,18.00
2018-07-21T12:20:44.672Z,21.40
2018-07-21T12:23:12.421Z,28.35
2018-07-21T12:25:40.060Z,21.17
2018-07-21T12:28:07.723Z,10.93
2018-07-21T12:30:35.456Z,8.85
2018-07-21T12:33:03.108Z,7.35
2018-07-21T12:35:30.678Z,12.43
2018-07-21T12:37:59.015Z,10.98
2018-07-21T12:40:26.651Z,15.00
2018-07-21T12:42:54.319Z,10.75
2018-07-21T12:45:22.085Z,14.43
2018-07-21T12:47:49.714Z,10.60
2018-07-21T12:50:17.459Z,8.15
2018-07-21T12:52:45.636Z,15.72
2018-07-21T12:55:13.294Z,16.15
2018-07-21T12:57:40.846Z,9.08
2018-07-21T13:00:08.478Z,12.47
2018-07-21T13:02:36.177Z,11.93
2018-07-21T13:05:03.952Z,12.58
2018-07-21T13:07:31.583Z,12.45
2018-07-21T13:09:59.429Z,10.55
2018-07-21T13:12:31.227Z,22.37
2018-07-21T13:14:58.875Z,21.35
2018-07-21T13:17:26.559Z,16.90
2018-07-21T13:19:54.156Z,15.65
2018-07-21T13:22:21.920Z,13.38
2018-07-21T13:24:49.612Z,17.02
2018-07-21T13:27:17.444Z,25.92
2018-07-21T13:29:45.144Z,20.65
2018-07-21T13:32:12.830Z,21.30
2018-07-21T13:34:40.937Z,13.90
2018-07-21T13:37:08.604Z,13.38
2018-07-21T13:39:36.445Z,17.77
2018-07-21T13:42:04.270Z,12.40
2018-07-21T13:44:31.936Z,12.98
2018-07-21T13:46:59.674Z,9.30
2018-07-21T13:49:28.147Z,9.23
2018-07-21T13:51:55.819Z,9.65
2018-07-21T13:54:23.536Z,11.15
2018-07-21T13:56:51.973Z,9.08
2018-07-21T13:59:19.690Z,11.50
2018-07-21T14:01:47.827Z,8.05
2018-07-21T14:04:15.454Z,8.28
2018-07-21T14:06:43.241Z,8.10
2018-07-21T14:09:12.218Z,4.60
2018-07-21T14:11:39.866Z,6.55
2018-07-21T14:14:07.742Z,5.30
2018-07-21T14:16:35.349Z,4.10
2018-07-21T14:19:04.773Z,1.20
2018-07-21T14:21:32.567Z,1.23
2018-07-21T14:24:03.125Z,3.85
2018-07-21T14:26:30.754Z,4.97
2018-07-21T14:28:58.614Z,4.03
2018-07-21T14:31:26.190Z,1.53
2018-07-21T14:33:53.863Z,1.20
2018-07-21T14:36:21.721Z,1.00
2018-07-21T14:38:50.223Z,1.00
2018-07-21T14:41:17.798Z,0.97
2018-07-21T14:43:45.411Z,3.55
2018-07-21T14:46:13.078Z,4.22
2018-07-21T14:48:40.980Z,4.20
2018-07-21T14:51:08.780Z,1.90
2018-07-21T14:53:36.428Z,2.37
2018-07-21T14:56:04.421Z,2.55
2018-07-21T14:58:32.160Z,1.55
2018-07-21T15:01:00.992Z,1.97
2018-07-21T15:03:29.078Z,0.90
2018-07-21T15:05:56.836Z,1.60
2018-07-21T15:08:24.624Z,0.97
2018-07-21T15:10:56.009Z,0.93
2018-07-21T15:13:30.107Z,0.87
2018-07-21T15:15:58.107Z,1.00
2018-07-21T15:18:25.759Z,1.10
2018-07-21T15:20:53.515Z,0.50
2018-07-21T15:23:22.244Z,0.63
2018-07-21T15:25:50.930Z,1.30
2018-07-21T15:28:18.644Z,1.07
2018-07-21T15:30:47.428Z,1.03
2018-07-21T15:33:15.071Z,1.13
2018-07-21T15:35:42.862Z,0.87
2018-07-21T15:38:11.438Z,1.40
2018-07-21T15:40:39.152Z,1.30
2018-07-21T15:43:06.999Z,1.03
2018-07-21T15:45:34.751Z,1.40
2018-07-21T15:48:06.708Z,4.07
2018-07-21T15:50:36.931Z,1.40
2018-07-21T15:53:05.854Z,0.97
2018-07-21T15:55:34.592Z,1.10
2018-07-21T15:58:03.587Z,0.57
2018-07-21T16:00:31.234Z,0.83
2018-07-21T16:03:01.104Z,1.93
2018-07-21T16:05:28.884Z,1.40
2018-07-21T16:07:56.561Z,0.67
2018-07-21T16:10:37.424Z,1.10
2018-07-21T16:13:05.714Z,0.67
2018-07-21T16:15:34.897Z,1.50
2018-07-21T16:18:03.365Z,1.30
2018-07-21T16:20:31.043Z,1.20
2018-07-21T16:22:58.635Z,0.60
2018-07-21T16:25:26.418Z,1.10
2018-07-21T16:27:54.096Z,1.50
2018-07-21T16:30:22.475Z,0.97
2018-07-21T16:32:50.125Z,0.63
2018-07-21T16:35:19.882Z,0.97
2018-07-21T16:37:50.281Z,0.67
2018-07-21T16:40:17.978Z,0.97
2018-07-21T16:42:46.727Z,0.97
2018-07-21T16:45:14.448Z,0.67
2018-07-21T16:47:42.022Z,0.93
2018-07-21T16:50:09.692Z,0.93
2018-07-21T16:52:37.292Z,0.93
2018-07-21T16:55:06.189Z,1.03
2018-07-21T16:57:33.935Z,1.07
2018-07-21T17:00:02.444Z,0.53
2018-07-21T17:02:30.046Z,0.97
2018-07-21T17:04:57.747Z,1.07
2018-07-21T17:07:25.390Z,1.13
2018-07-21T17:09:57.120Z,2.85
2018-07-21T17:12:24.748Z,1.47
2018-07-21T17:14:53.692Z,1.40
2018-07-21T17:17:21.341Z,1.10
2018-07-21T17:19:49.668Z,1.33
2018-07-21T17:22:17.312Z,1.50
2018-07-21T17:24:45.120Z,1.53
2018-07-21T17:27:13.471Z,1.70
2018-07-21T17:29:41.245Z,1.60
2018-07-21T17:32:08.798Z,1.80
2018-07-21T17:34:36.519Z,0.67
2018-07-21T17:37:04.355Z,1.60
2018-07-21T17:39:32.724Z,1.87
2018-07-21T17:42:00.418Z,1.63
2018-07-21T17:44:28.183Z,1.30
2018-07-21T17:46:55.866Z,0.60
2018-07-21T17:49:25.200Z,0.63
2018-07-21T17:51:54.024Z,0.63
2018-07-21T17:54:22.604Z,0.87
2018-07-21T17:56:52.254Z,2.40
2018-07-21T17:59:19.910Z,2.07
2018-07-21T18:01:48.117Z,0.60
2018-07-21T18:04:15.858Z,0.97
2018-07-21T18:06:43.461Z,1.13
2018-07-21T18:09:11.597Z,1.03
2018-07-21T18:11:41.238Z,0.83
2018-07-21T18:14:08.883Z,0.67
2018-07-21T18:16:36.600Z,0.77
2018-07-21T18:19:05.423Z,0.73
2018-07-21T18:21:33.169Z,0.97
2018-07-21T18:24:00.900Z,0.73
2018-07-21T18:26:28.928Z,0.63
2018-07-21T18:28:56.579Z,0.60
2018-07-21T18:31:30.773Z,1.40
2018-07-21T18:33:59.496Z,1.03
2018-07-21T18:36:27.176Z,1.27
2018-07-21T18:38:54.871Z,1.13
2018-07-21T18:41:22.522Z,1.40
2018-07-21T18:43:50.098Z,1.40
2018-07-21T18:46:17.700Z,1.00
2018-07-21T18:48:45.411Z,0.77
2018-07-21T18:51:13.094Z,1.13
2018-07-21T18:53:40.764Z,1.50
2018-07-21T18:56:09.985Z,1.50
2018-07-21T18:58:37.704Z,0.67
2018-07-21T19:01:05.579Z,0.77
2018-07-21T19:03:33.306Z,0.83
2018-07-21T19:06:01.020Z,0.67
2018-07-21T19:08:35.209Z,1.50
2018-07-21T19:11:03.111Z,1.10
2018-07-21T19:13:30.716Z,2.37
2018-07-21T19:16:04.210Z,1.20
2018-07-21T19:18:31.828Z,0.63
2018-07-21T19:21:04.887Z,1.03
2018-07-21T19:23:32.526Z,1.00
2018-07-21T19:26:05.735Z,1.27
2018-07-21T19:28:33.540Z,1.10
2018-07-21T19:31:01.196Z,0.93
2018-07-21T19:33:28.913Z,1.10
2018-07-21T19:35:56.952Z,1.00
2018-07-21T19:38:24.650Z,0.93
2018-07-21T19:40:52.412Z,1.03
2018-07-21T19:43:20.082Z,0.53
2018-07-21T19:45:47.727Z,0.93
2018-07-21T19:48:15.315Z,0.57
2018-07-21T19:50:42.990Z,1.07
2018-07-21T19:53:10.917Z,0.83
2018-07-21T19:55:38.612Z,0.73
2018-07-21T19:58:06.390Z,1.00
2018-07-21T20:00:35.045Z,0.90
2018-07-21T20:03:02.721Z,0.77
2018-07-21T20:05:30.400Z,0.83
2018-07-21T20:07:57.962Z,0.60
2018-07-21T20:10:26.576Z,1.27
2018-07-21T20:12:54.244Z,0.77
2018-07-21T20:15:22.951Z,1.40
2018-07-21T20:17:50.677Z,1.20
2018-07-21T20:20:18.396Z,1.30
2018-07-21T20:22:46.117Z,0.67
2018-07-21T20:25:13.975Z,1.07
2018-07-21T20:27:42.843Z,0.63
2018-07-21T20:30:11.662Z,0.93
2018-07-21T20:32:41.140Z,0.83
2018-07-21T20:35:08.807Z,1.03
2018-07-21T20:37:36.808Z,1.20
2018-07-21T20:40:04.521Z,0.93
2018-07-21T20:42:33.594Z,1.13
2018-07-21T20:45:01.465Z,1.37
2018-07-21T20:47:29.652Z,0.53
2018-07-21T20:50:04.685Z,1.30
2018-07-21T20:52:32.776Z,1.03
2018-07-21T20:55:07.204Z,1.13
2018-07-21T20:57:52.674Z,0.97
2018-07-21T21:00:35.639Z,0.87
2018-07-21T21:03:07.259Z,0.87
2018-07-21T21:05:36.588Z,0.87
2018-07-21T21:08:05.998Z,0.87
2018-07-21T21:10:34.431Z,0.83
2018-07-21T21:13:07.339Z,0.93
2018-07-21T21:15:35.682Z,1.13
2018-07-21T21:18:06.535Z,1.17
2018-07-21T21:20:36.012Z,0.53
2018-07-21T21:26:07.239Z,0.87
2018-07-21T21:28:35.302Z,0.93
2018-07-21T21:31:06.555Z,1.30
2018-07-21T21:33:36.203Z,1.10
2018-07-21T21:39:08.278Z,0.90
2018-07-21T21:41:38.033Z,1.40
2018-07-21T21:44:06.550Z,0.67
2018-07-21T21:46:35.463Z,1.40
2018-07-21T21:49:09.040Z,1.40
2018-07-21T21:51:37.145Z,0.77
2018-07-21T21:54:05.636Z,1.20
2018-07-21T21:56:35.980Z,0.57
2018-07-21T21:59:05.491Z,0.90
2018-07-21T22:01:36.967Z,0.90
2018-07-21T22:04:05.528Z,0.67
2018-07-21T22:06:35.110Z,0.93
2018-07-21T22:09:07.594Z,0.93
2018-07-21T22:14:34.449Z,2.83
2018-07-21T22:17:07.313Z,0.67
2018-07-21T22:19:35.692Z,3.00
2018-07-21T22:22:05.036Z,0.60
2018-07-21T22:24:35.824Z,0.63
2018-07-21T22:27:38.998Z,0.93
2018-07-21T22:30:07.226Z,0.63
2018-07-21T22:32:35.921Z,1.40
2018-07-21T22:38:15.615Z,1.40
2018-07-21T22:40:43.766Z,0.63
2018-07-21T22:43:11.559Z,1.10
2018-07-21T22:45:39.231Z,1.00
2018-07-21T22:48:06.926Z,1.23
2018-07-21T22:50:34.821Z,0.87
2018-07-21T22:53:02.448Z,0.63
2018-07-21T22:55:30.151Z,0.67
2018-07-21T22:57:57.927Z,0.63
2018-07-21T23:00:26.123Z,0.87
2018-07-21T23:05:47.687Z,0.93
2018-07-21T23:08:15.440Z,1.10
2018-07-21T23:10:43.133Z,1.03
2018-07-21T23:13:10.795Z,1.30
2018-07-21T23:18:52.607Z,0.63
2018-07-21T23:21:35.486Z,0.87
2018-07-21T23:24:08.198Z,1.17
2018-07-21T23:26:36.128Z,1.13
2018-07-21T23:29:03.909Z,0.93
2018-07-21T23:31:31.568Z,0.97
2018-07-21T23:33:59.264Z,1.27
2018-07-21T23:36:26.902Z,1.17
2018-07-21T23:38:54.610Z,1.20
2018-07-21T23:41:34.683Z,1.10
2018-07-21T23:44:02.435Z,1.20
2018-07-21T23:46:30.168Z,1.00
2018-07-21T23:48:57.842Z,2.57
2018-07-21T23:51:25.603Z,2.00
2018-07-21T23:53:53.449Z,3.75
2018-07-21T23:56:33.641Z,0.93
2018-07-21T23:59:01.393Z,2.25
